Weather at Portland International Airport

Public forecast

Using degrees Fahrenheit for public forecast. Weather courtesy of forecast.io.

Current aviation weather report (METAR) for Portland International Airport

Retrieved 2021/06/12 18:53 UTC (49 minutes ago):

KPDX 121853Z 12003KT 10SM FEW040 BKN250 22/11 A2994 RMK AO2 SLP139 T02220106

Aviation forecast (TAF) for Portland International Airport

Retrieved 2021/06/12 18:33 UTC (1 hour ago):

TAF KPDX 121731Z 1218/1318 09009KT P6SM FEW030 SCT045 FM130000 VRB03KT P6SM VCSH SCT030 OVC100 FM130600 VRB04KT 6SM -RA BR OVC035 FM130900 VRB04KT 6SM -RA BR OVC025 FM131700 07003KT P6SM -RA OVC025